sensor_id;sensor_type;location;lat;lon;timestamp;temperature;humidity
12843;DHT22;35724;49.324;-123.118;2024-02-15T00:06:31;8.50;86.90
12843;DHT22;35724;49.324;-123.118;2024-02-15T00:16:39;8.50;83.50
12843;DHT22;35724;49.324;-123.118;2024-02-15T00:26:48;8.40;91.30
12843;DHT22;35724;49.324;-123.118;2024-02-15T00:36:58;8.10;90.30
12843;DHT22;35724;49.324;-123.118;2024-02-15T00:47:07;7.80;93.20
12843;DHT22;35724;49.324;-123.118;2024-02-15T00:57:15;7.50;90.30
12843;DHT22;35724;49.324;-123.118;2024-02-15T01:07:24;7.30;94.80
12843;DHT22;35724;49.324;-123.118;2024-02-15T01:17:33;6.90;95.50
12843;DHT22;35724;49.324;-123.118;2024-02-15T01:27:42;6.70;98.90
12843;DHT22;35724;49.324;-123.118;2024-02-15T01:37:49;6.30;99.90
12843;DHT22;35724;49.324;-123.118;2024-02-15T01:47:59;6.10;99.90
12843;DHT22;35724;49.324;-123.118;2024-02-15T01:58:07;5.80;99.90
12843;DHT22;35724;49.324;-123.118;2024-02-15T02:08:16;5.70;99.90
12843;DHT22;35724;49.324;-123.118;2024-02-15T02:18:24;5.60;99.90
12843;DHT22;35724;49.324;-123.118;2024-02-15T02:28:33;5.40;99.90
12843;DHT22;35724;49.324;-123.118;2024-02-15T02:38:41;5.40;99.90
12843;DHT22;35724;49.324;-123.118;2024-02-15T02:48:51;5.30;99.90
12843;DHT22;35724;49.324;-123.118;2024-02-15T02:58:59;5.20;99.90
12843;DHT22;35724;49.324;-123.118;2024-02-15T03:09:07;5.10;99.10
12843;DHT22;35724;49.324;-123.118;2024-02-15T03:19:16;4.90;91.00
12843;DHT22;35724;49.324;-123.118;2024-02-15T03:29:25;5.30;56.20
12843;DHT22;35724;49.324;-123.118;2024-02-15T03:39:32;5.20;56.70
12843;DHT22;35724;49.324;-123.118;2024-02-15T03:49:41;5.00;56.30
12843;DHT22;35724;49.324;-123.118;2024-02-15T03:59:48;4.80;56.50
12843;DHT22;35724;49.324;-123.118;2024-02-15T04:09:59;4.90;53.50
12843;DHT22;35724;49.324;-123.118;2024-02-15T04:20:10;5.10;52.80
12843;DHT22;35724;49.324;-123.118;2024-02-15T04:30:22;5.00;52.90
12843;DHT22;35724;49.324;-123.118;2024-02-15T04:40:29;4.90;54.40
12843;DHT22;35724;49.324;-123.118;2024-02-15T04:50:38;4.80;52.40
12843;DHT22;35724;49.324;-123.118;2024-02-15T05:00:47;4.50;59.80
12843;DHT22;35724;49.324;-123.118;2024-02-15T05:11:00;4.80;50.20
12843;DHT22;35724;49.324;-123.118;2024-02-15T05:21:09;5.00;50.80
12843;DHT22;35724;49.324;-123.118;2024-02-15T05:31:19;5.10;49.30
12843;DHT22;35724;49.324;-123.118;2024-02-15T05:41:30;4.80;53.80
12843;DHT22;35724;49.324;-123.118;2024-02-15T05:51:40;4.30;57.80
12843;DHT22;35724;49.324;-123.118;2024-02-15T06:01:48;3.70;61.90
12843;DHT22;35724;49.324;-123.118;2024-02-15T06:11:57;3.40;63.00
12843;DHT22;35724;49.324;-123.118;2024-02-15T06:22:05;3.20;64.30
12843;DHT22;35724;49.324;-123.118;2024-02-15T06:32:14;3.20;62.60
12843;DHT22;35724;49.324;-123.118;2024-02-15T06:42:38;3.00;65.40
12843;DHT22;35724;49.324;-123.118;2024-02-15T06:52:48;3.00;60.90
12843;DHT22;35724;49.324;-123.118;2024-02-15T07:02:56;2.90;64.30
12843;DHT22;35724;49.324;-123.118;2024-02-15T07:13:05;2.70;66.40
12843;DHT22;35724;49.324;-123.118;2024-02-15T07:23:13;2.50;68.60
12843;DHT22;35724;49.324;-123.118;2024-02-15T07:33:22;2.50;69.50
12843;DHT22;35724;49.324;-123.118;2024-02-15T07:43:30;2.40;70.30
12843;DHT22;35724;49.324;-123.118;2024-02-15T07:53:40;2.40;69.90
12843;DHT22;35724;49.324;-123.118;2024-02-15T08:03:47;2.40;69.80
12843;DHT22;35724;49.324;-123.118;2024-02-15T08:13:56;2.30;70.70
12843;DHT22;35724;49.324;-123.118;2024-02-15T08:24:05;2.20;72.20
12843;DHT22;35724;49.324;-123.118;2024-02-15T08:34:15;2.20;70.80
12843;DHT22;35724;49.324;-123.118;2024-02-15T08:44:23;2.00;75.70
12843;DHT22;35724;49.324;-123.118;2024-02-15T08:54:32;1.80;75.70
12843;DHT22;35724;49.324;-123.118;2024-02-15T09:04:39;1.80;74.50
12843;DHT22;35724;49.324;-123.118;2024-02-15T09:14:50;1.90;73.40
12843;DHT22;35724;49.324;-123.118;2024-02-15T09:24:58;1.90;68.50
12843;DHT22;35724;49.324;-123.118;2024-02-15T09:35:09;2.90;54.40
12843;DHT22;35724;49.324;-123.118;2024-02-15T09:45:17;3.20;52.60
12843;DHT22;35724;49.324;-123.118;2024-02-15T09:55:27;3.00;57.10
12843;DHT22;35724;49.324;-123.118;2024-02-15T10:05:35;2.60;62.40
12843;DHT22;35724;49.324;-123.118;2024-02-15T10:15:46;2.30;62.70
12843;DHT22;35724;49.324;-123.118;2024-02-15T10:25:54;2.00;65.20
12843;DHT22;35724;49.324;-123.118;2024-02-15T10:36:09;1.80;67.00
12843;DHT22;35724;49.324;-123.118;2024-02-15T10:46:16;1.60;68.00
12843;DHT22;35724;49.324;-123.118;2024-02-15T10:56:27;1.50;69.70
12843;DHT22;35724;49.324;-123.118;2024-02-15T11:06:43;1.40;69.30
12843;DHT22;35724;49.324;-123.118;2024-02-15T11:16:53;1.40;71.20
12843;DHT22;35724;49.324;-123.118;2024-02-15T11:27:04;1.40;73.60
12843;DHT22;35724;49.324;-123.118;2024-02-15T11:48:18;2.10;70.70
12843;DHT22;35724;49.324;-123.118;2024-02-15T11:58:28;2.40;71.80
12843;DHT22;35724;49.324;-123.118;2024-02-15T12:08:46;2.30;81.90
12843;DHT22;35724;49.324;-123.118;2024-02-15T12:19:11;2.40;77.80
12843;DHT22;35724;49.324;-123.118;2024-02-15T12:29:20;2.50;74.60
12843;DHT22;35724;49.324;-123.118;2024-02-15T12:39:28;2.60;75.10
12843;DHT22;35724;49.324;-123.118;2024-02-15T12:49:36;2.80;76.00
12843;DHT22;35724;49.324;-123.118;2024-02-15T12:59:47;2.80;74.70
12843;DHT22;35724;49.324;-123.118;2024-02-15T13:09:54;2.90;75.10
12843;DHT22;35724;49.324;-123.118;2024-02-15T13:20:03;3.00;76.60
12843;DHT22;35724;49.324;-123.118;2024-02-15T13:30:16;3.00;81.30
12843;DHT22;35724;49.324;-123.118;2024-02-15T13:40:29;3.10;76.70
12843;DHT22;35724;49.324;-123.118;2024-02-15T13:50:37;3.10;76.70
12843;DHT22;35724;49.324;-123.118;2024-02-15T14:00:47;3.10;74.80
12843;DHT22;35724;49.324;-123.118;2024-02-15T14:10:54;3.10;76.60
12843;DHT22;35724;49.324;-123.118;2024-02-15T14:21:04;3.20;75.40
12843;DHT22;35724;49.324;-123.118;2024-02-15T14:31:18;3.20;78.80
12843;DHT22;35724;49.324;-123.118;2024-02-15T14:41:44;3.20;82.90
12843;DHT22;35724;49.324;-123.118;2024-02-15T14:51:53;3.30;78.30
12843;DHT22;35724;49.324;-123.118;2024-02-15T15:02:02;3.20;79.10
12843;DHT22;35724;49.324;-123.118;2024-02-15T15:12:15;3.30;82.50
12843;DHT22;35724;49.324;-123.118;2024-02-15T15:22:41;3.30;82.00
12843;DHT22;35724;49.324;-123.118;2024-02-15T15:32:49;3.40;78.30
12843;DHT22;35724;49.324;-123.118;2024-02-15T15:42:59;3.50;78.10
12843;DHT22;35724;49.324;-123.118;2024-02-15T15:53:08;3.50;83.60
12843;DHT22;35724;49.324;-123.118;2024-02-15T16:03:17;3.70;83.80
12843;DHT22;35724;49.324;-123.118;2024-02-15T16:13:27;3.90;82.30
12843;DHT22;35724;49.324;-123.118;2024-02-15T16:23:35;4.30;82.70
12843;DHT22;35724;49.324;-123.118;2024-02-15T16:33:44;4.50;80.50
12843;DHT22;35724;49.324;-123.118;2024-02-15T16:43:53;4.90;80.80
12843;DHT22;35724;49.324;-123.118;2024-02-15T16:54:02;5.00;84.10
12843;DHT22;35724;49.324;-123.118;2024-02-15T17:04:14;5.30;80.40
12843;DHT22;35724;49.324;-123.118;2024-02-15T17:14:22;5.90;76.60
12843;DHT22;35724;49.324;-123.118;2024-02-15T17:24:31;6.10;79.30
12843;DHT22;35724;49.324;-123.118;2024-02-15T17:34:40;6.50;84.40
12843;DHT22;35724;49.324;-123.118;2024-02-15T17:44:49;7.10;83.60
12843;DHT22;35724;49.324;-123.118;2024-02-15T17:54:56;7.70;76.60
12843;DHT22;35724;49.324;-123.118;2024-02-15T18:05:05;8.80;67.70
12843;DHT22;35724;49.324;-123.118;2024-02-15T18:15:13;10.00;57.70
12843;DHT22;35724;49.324;-123.118;2024-02-15T18:25:24;10.00;50.70
12843;DHT22;35724;49.324;-123.118;2024-02-15T18:35:32;9.90;52.90
12843;DHT22;35724;49.324;-123.118;2024-02-15T18:45:42;10.20;51.60
12843;DHT22;35724;49.324;-123.118;2024-02-15T18:55:49;11.80;44.60
12843;DHT22;35724;49.324;-123.118;2024-02-15T19:05:59;12.20;41.30
12843;DHT22;35724;49.324;-123.118;2024-02-15T19:16:06;11.30;41.50
12843;DHT22;35724;49.324;-123.118;2024-02-15T19:26:17;10.80;44.50
12843;DHT22;35724;49.324;-123.118;2024-02-15T19:36:25;10.30;40.40
12843;DHT22;35724;49.324;-123.118;2024-02-15T19:46:35;10.20;44.90
12843;DHT22;35724;49.324;-123.118;2024-02-15T19:56:44;10.20;45.20
12843;DHT22;35724;49.324;-123.118;2024-02-15T20:06:53;9.60;44.80
12843;DHT22;35724;49.324;-123.118;2024-02-15T20:17:00;9.50;48.90
12843;DHT22;35724;49.324;-123.118;2024-02-15T20:27:09;9.60;45.80
12843;DHT22;35724;49.324;-123.118;2024-02-15T20:37:18;9.20;58.10
12843;DHT22;35724;49.324;-123.118;2024-02-15T20:47:27;9.50;62.20
12843;DHT22;35724;49.324;-123.118;2024-02-15T20:57:36;9.70;60.00
12843;DHT22;35724;49.324;-123.118;2024-02-15T21:07:46;10.00;57.00
12843;DHT22;35724;49.324;-123.118;2024-02-15T21:17:54;9.60;58.70
12843;DHT22;35724;49.324;-123.118;2024-02-15T21:28:03;9.80;60.90
12843;DHT22;35724;49.324;-123.118;2024-02-15T21:38:11;10.60;61.10
12843;DHT22;35724;49.324;-123.118;2024-02-15T21:48:20;10.60;59.90
12843;DHT22;35724;49.324;-123.118;2024-02-15T21:58:28;11.00;57.20
12843;DHT22;35724;49.324;-123.118;2024-02-15T22:08:37;10.80;58.40
12843;DHT22;35724;49.324;-123.118;2024-02-15T22:18:44;10.20;58.40
12843;DHT22;35724;49.324;-123.118;2024-02-15T22:28:53;9.00;62.60
12843;DHT22;35724;49.324;-123.118;2024-02-15T22:39:01;8.80;64.60
12843;DHT22;35724;49.324;-123.118;2024-02-15T22:49:13;9.30;63.10
12843;DHT22;35724;49.324;-123.118;2024-02-15T22:59:21;9.40;59.60
12843;DHT22;35724;49.324;-123.118;2024-02-15T23:09:30;9.10;57.20
12843;DHT22;35724;49.324;-123.118;2024-02-15T23:19:37;8.80;57.00
12843;DHT22;35724;49.324;-123.118;2024-02-15T23:29:46;8.60;54.50
12843;DHT22;35724;49.324;-123.118;2024-02-15T23:39:54;8.50;53.70
12843;DHT22;35724;49.324;-123.118;2024-02-15T23:50:19;8.20;54.10
